Buoy 41991

sailwx.info

Track history (hours):
 
Tides and Currents Weather Stations Pressure Air Temp Water Temp Dewpoint Dewpoint Depression Visibility Wind Speed Wind Dir Waves Ship Positions

Drifting buoy 41991

Last reported at 2015-Jul-31 20:57 UTC. Time now 2015-Aug-01 01:33 UTC.
Position N 27°46' W 043°16'.

Water temperature 28.1 ° C

Date/timePositionNaut miles runAvg speedWind from/ knotsBaromVisibWave heightAir tempDewpointWater temp
2015-Jul-31 20:57N 27°46' W 043°16'0 0.2 28.1
2015-Jul-31 20:04N 27°46' W 043°16'0 3.6 28.1
2015-Jul-31 19:56N 27°46' W 043°15'0 0.0 28.1
2015-Jul-31 19:17N 27°46' W 043°15'1 0.8 28.2
2015-Jul-31 17:55N 27°46' W 043°14'1 0.5 28.2
2015-Jul-31 16:12N 27°47' W 043°14'2 0.4 27.9
2015-Jul-31 11:55N 27°49' W 043°15'0 0.0
2015-Jul-31 11:03N 27°49' W 043°15'0 0.1 27.6
2015-Jul-31 09:25N 27°48' W 043°15'0 0.3 27.6
2015-Jul-31 08:57N 27°48' W 043°15'0 4.3 27.7
2015-Jul-31 08:53N 27°48' W 043°15'0 0.2 27.7
2015-Jul-31 07:56N 27°48' W 043°15'0 0.4 27.7
2015-Jul-31 07:11N 27°48' W 043°15'1 0.1 27.7
2015-Jul-30 22:47N 27°47' W 043°15'3 0.6 28.0
2015-Jul-30 18:08N 27°46' W 043°12'3 0.7 28.2
2015-Jul-30 14:04N 27°48' W 043°10'2 1.0 27.9
2015-Jul-30 12:17N 27°49' W 043°12'0 0.1 27.7
2015-Jul-30 10:07N 27°49' W 043°12'0 0.4 27.7
2015-Jul-30 09:12N 27°48' W 043°12'0 5.6 27.7
2015-Jul-30 09:10N 27°48' W 043°12'1 0.3 27.7
2015-Jul-30 05:06N 27°47' W 043°12'1 8.8 27.8
2015-Jul-30 04:57N 27°46' W 043°11'0 0.0 27.8
2015-Jul-30 00:47N 27°46' W 043°11'0 0.4 27.8
2015-Jul-30 00:02N 27°45' W 043°11'0 3.3 27.9
2015-Jul-29 23:53N 27°46' W 043°11'1 1.3 27.9
2015-Jul-29 23:02N 27°46' W 043°09'1 0.3 27.9
2015-Jul-29 20:02N 27°45' W 043°09'1 0.6 28.1
2015-Jul-29 19:05N 27°46' W 043°08'1 0.3 28.2
2015-Jul-29 14:57N 27°47' W 043°07'3 0.7 28.0
2015-Jul-29 11:05N 27°49' W 043°09'1 0.1 27.5
2015-Jul-29 07:11N 27°48' W 043°10'110.4 27.4
2015-Jul-29 07:08N 27°48' W 043°10'0 0.0 27.4
2015-Jul-29 06:57N 27°48' W 043°10'1 0.4 27.5
2015-Jul-29 05:15N 27°47' W 043°10'1 8.6 27.5
2015-Jul-29 05:10N 27°47' W 043°11'0 0.1 27.5
2015-Jul-29 01:04N 27°46' W 043°11'2 0.4 27.9
2015-Jul-28 20:56N 27°45' W 043°10'0 0.3 28.5
2015-Jul-28 19:52N 27°45' W 043°09'2 0.5 28.6
2015-Jul-28 15:08N 27°45' W 043°07'0 0.0 28.4
2015-Jul-28 13:53N 27°45' W 043°07'1 0.9 28.0
2015-Jul-28 12:56N 27°46' W 043°07'0 0.0
2015-Jul-28 12:10N 27°46' W 043°07'0 0.7 27.4
2015-Jul-28 12:05N 27°46' W 043°07'1 0.3 27.4
2015-Jul-28 09:12N 27°47' W 043°07'0 0.2 27.3
2015-Jul-28 07:53N 27°47' W 043°08'1 0.7 27.3
2015-Jul-28 07:09N 27°47' W 043°08'1 0.1 27.3
2015-Jul-28 00:43N 27°46' W 043°09'0 0.1 27.6
2015-Jul-27 23:50N 27°46' W 043°09'0 0.0 27.6
2015-Jul-27 23:46N 27°46' W 043°09'0 0.4 27.6
2015-Jul-27 23:03N 27°46' W 043°09'0 2.8 27.6
2015-Jul-27 22:55N 27°45' W 043°09'1 0.4 27.6
2015-Jul-27 21:06N 27°45' W 043°09'0 2.7 27.7
2015-Jul-27 20:57N 27°45' W 043°08'2 0.5 27.7
2015-Jul-27 17:03N 27°44' W 043°07'2 0.3 27.6
2015-Jul-27 08:03N 27°46' W 043°05'1 8.8 27.1
2015-Jul-27 07:58N 27°46' W 043°05'1 0.2 27.1
2015-Jul-27 03:57N 27°46' W 043°06'1 0.4 27.2
2015-Jul-27 01:48N 27°46' W 043°06'0 0.3 27.2
2015-Jul-27 00:10N 27°46' W 043°07'0 0.4 27.2
2015-Jul-26 23:24N 27°46' W 043°07'0 2.7 27.3
2015-Jul-26 23:17N 27°45' W 043°07'0 0.0 27.3
2015-Jul-26 22:29N 27°45' W 043°07'0 0.1 27.3
2015-Jul-26 21:19N 27°45' W 043°07'1 1.4 27.3
2015-Jul-26 20:56N 27°45' W 043°06'1 6.9 27.4
2015-Jul-26 20:51N 27°44' W 043°07'1 0.8 27.4
2015-Jul-26 19:39N 27°43' W 043°06'0 0.0 27.4
2015-Jul-26 17:58N 27°43' W 043°06'0 1.3 27.5
2015-Jul-26 17:52N 27°44' W 043°06'0 0.2 27.5
2015-Jul-26 17:11N 27°44' W 043°06'1 0.4 27.4
2015-Jul-26 15:31N 27°43' W 043°05'1 0.7 27.3
2015-Jul-26 14:31N 27°42' W 043°05'0 0.0 27.2
2015-Jul-26 13:43N 27°42' W 043°05'1 0.6 27.2
2015-Jul-26 12:10N 27°42' W 043°04'0 0.0 27.1
2015-Jul-26 12:05N 27°42' W 043°04'115.1 27.1
2015-Jul-26 12:01N 27°43' W 043°03'0 0.0 27.1
2015-Jul-26 10:19N 27°43' W 043°03'0 0.0 27.1
2015-Jul-26 10:05N 27°43' W 043°03'1 4.8 27.1
2015-Jul-26 09:56N 27°43' W 043°04'0 0.2 27.0
2015-Jul-26 08:16N 27°43' W 043°04'1 0.8 27.1
2015-Jul-26 07:30N 27°43' W 043°03'0 0.0 27.1
2015-Jul-26 07:03N 27°43' W 043°03'0 0.1 27.1
2015-Jul-26 05:48N 27°43' W 043°03'1 0.5 27.2
2015-Jul-26 04:05N 27°44' W 043°04'0 0.0 27.2
2015-Jul-25 22:51N 27°44' W 043°04'0 0.5 27.4
2015-Jul-25 22:42N 27°44' W 043°04'1 0.2
2015-Jul-25 19:51N 27°43' W 043°04'1 0.4 27.6
2015-Jul-25 18:06N 27°42' W 043°05'2 0.5 27.6
2015-Jul-25 14:08N 27°41' W 043°04'1 0.2 27.3
2015-Jul-25 10:08N 27°40' W 043°03'0 0.3 27.2
2015-Jul-25 09:11N 27°40' W 043°03'1 1.5 27.2
2015-Jul-25 08:26N 27°41' W 043°01'0 0.0 27.2
2015-Jul-25 07:34N 27°41' W 043°01'0 0.4 27.2
2015-Jul-25 06:50N 27°41' W 043°01'0 0.3 27.3
2015-Jul-25 06:05N 27°41' W 043°01'0 1.3 27.3
2015-Jul-25 06:00N 27°41' W 043°01'1 5.6 27.3
2015-Jul-25 05:54N 27°42' W 043°02'0 0.0 27.3
2015-Jul-25 04:23N 27°42' W 043°02'0 0.0 27.3
2015-Jul-25 04:20N 27°42' W 043°02'1 9.6 27.3
2015-Jul-25 04:16N 27°42' W 043°02'0 0.0 27.3
2015-Jul-25 00:51N 27°42' W 043°02'0 0.5 27.3
2015-Jul-25 00:07N 27°42' W 043°02'0 2.4 27.3
2015-Jul-24 23:56N 27°42' W 043°03'0 0.3
2015-Jul-24 23:06N 27°42' W 043°02'0 7.2 27.4
2015-Jul-24 23:02N 27°42' W 043°03'1 0.4 27.4
2015-Jul-24 20:02N 27°41' W 043°03'0 0.1 27.6
2015-Jul-24 18:17N 27°41' W 043°04'1 0.3 27.6
2015-Jul-24 15:54N 27°40' W 043°04'2 0.1 27.4
2015-Jul-23 20:55N 27°39' W 043°02'0 0.4 27.3
2015-Jul-23 20:14N 27°39' W 043°02'1 0.9 27.3
2015-Jul-23 19:15N 27°39' W 043°03'3 0.9 27.4
2015-Jul-23 16:06N 27°36' W 043°03'1 0.3 27.4
2015-Jul-23 13:56N 27°35' W 043°02'1 0.7 27.3
2015-Jul-23 13:04N 27°35' W 043°01'1 0.7 27.2
2015-Jul-23 12:09N 27°35' W 043°01'0 0.0
2015-Jul-23 12:07N 27°35' W 043°01'1 0.3 27.2
2015-Jul-23 08:38N 27°35' W 042°60'0 0.4 27.3
2015-Jul-23 07:56N 27°35' W 042°60'1 0.2 27.3
2015-Jul-23 00:48N 27°37' W 042°60'0 0.0 27.7
2015-Jul-22 23:54N 27°37' W 042°60'0 2.4 27.8
2015-Jul-22 23:51N 27°36' W 043°00'1 1.1 27.8
2015-Jul-22 23:06N 27°36' W 043°01'1 0.2 27.8
2015-Jul-22 17:57N 27°35' W 043°01'2 0.3 28.5
2015-Jul-22 11:50N 27°34' W 042°60'1 0.9 27.5
2015-Jul-22 10:53N 27°34' W 042°59'0 0.3 27.4
2015-Jul-22 10:05N 27°34' W 042°59'1 0.5 27.4
2015-Jul-22 08:57N 27°34' W 042°59'1 0.5 27.4
2015-Jul-22 07:15N 27°35' W 042°58'0 0.1 27.6
2015-Jul-22 04:53N 27°35' W 042°58'0 0.1 27.7
2015-Jul-22 01:49N 27°36' W 042°58'0 0.2 27.8
2015-Jul-22 01:08N 27°36' W 042°58'0 0.1 27.8
2015-Jul-21 21:57N 27°36' W 042°58'   28.1
Track history (hours):
 
Tides and Currents Weather Stations Pressure Air Temp Water Temp Dewpoint Dewpoint Depression Visibility Wind Speed Wind Dir Waves Ship Positions

Drifting buoy 41991

Last reported at 2015-Jul-31 20:57 UTC. Time now 2015-Aug-01 01:33 UTC.
Position N 27°46' W 043°16'.

Water temperature 28.1 ° C

Date/timePositionNaut miles runAvg speedWind from/ knotsBaromVisibWave heightAir tempDewpointWater temp
2015-Jul-31 20:57N 27°46' W 043°16'0 0.2 28.1
2015-Jul-31 20:04N 27°46' W 043°16'0 3.6 28.1
2015-Jul-31 19:56N 27°46' W 043°15'0 0.0 28.1
2015-Jul-31 19:17N 27°46' W 043°15'1 0.8 28.2
2015-Jul-31 17:55N 27°46' W 043°14'1 0.5 28.2
2015-Jul-31 16:12N 27°47' W 043°14'2 0.4 27.9
2015-Jul-31 11:55N 27°49' W 043°15'0 0.0
2015-Jul-31 11:03N 27°49' W 043°15'0 0.1 27.6
2015-Jul-31 09:25N 27°48' W 043°15'0 0.3 27.6
2015-Jul-31 08:57N 27°48' W 043°15'0 4.3 27.7
2015-Jul-31 08:53N 27°48' W 043°15'0 0.2 27.7
2015-Jul-31 07:56N 27°48' W 043°15'0 0.4 27.7
2015-Jul-31 07:11N 27°48' W 043°15'1 0.1 27.7
2015-Jul-30 22:47N 27°47' W 043°15'3 0.6 28.0
2015-Jul-30 18:08N 27°46' W 043°12'3 0.7 28.2
2015-Jul-30 14:04N 27°48' W 043°10'2 1.0 27.9
2015-Jul-30 12:17N 27°49' W 043°12'0 0.1 27.7
2015-Jul-30 10:07N 27°49' W 043°12'0 0.4 27.7
2015-Jul-30 09:12N 27°48' W 043°12'0 5.6 27.7
2015-Jul-30 09:10N 27°48' W 043°12'1 0.3 27.7
2015-Jul-30 05:06N 27°47' W 043°12'1 8.8 27.8
2015-Jul-30 04:57N 27°46' W 043°11'0 0.0 27.8
2015-Jul-30 00:47N 27°46' W 043°11'0 0.4 27.8
2015-Jul-30 00:02N 27°45' W 043°11'0 3.3 27.9
2015-Jul-29 23:53N 27°46' W 043°11'1 1.3 27.9
2015-Jul-29 23:02N 27°46' W 043°09'1 0.3 27.9
2015-Jul-29 20:02N 27°45' W 043°09'1 0.6 28.1
2015-Jul-29 19:05N 27°46' W 043°08'1 0.3 28.2
2015-Jul-29 14:57N 27°47' W 043°07'3 0.7 28.0
2015-Jul-29 11:05N 27°49' W 043°09'1 0.1 27.5
2015-Jul-29 07:11N 27°48' W 043°10'110.4 27.4
2015-Jul-29 07:08N 27°48' W 043°10'0 0.0 27.4
2015-Jul-29 06:57N 27°48' W 043°10'1 0.4 27.5
2015-Jul-29 05:15N 27°47' W 043°10'1 8.6 27.5
2015-Jul-29 05:10N 27°47' W 043°11'0 0.1 27.5
2015-Jul-29 01:04N 27°46' W 043°11'2 0.4 27.9
2015-Jul-28 20:56N 27°45' W 043°10'0 0.3 28.5
2015-Jul-28 19:52N 27°45' W 043°09'2 0.5 28.6
2015-Jul-28 15:08N 27°45' W 043°07'0 0.0 28.4
2015-Jul-28 13:53N 27°45' W 043°07'1 0.9 28.0
2015-Jul-28 12:56N 27°46' W 043°07'0 0.0
2015-Jul-28 12:10N 27°46' W 043°07'0 0.7 27.4
2015-Jul-28 12:05N 27°46' W 043°07'1 0.3 27.4
2015-Jul-28 09:12N 27°47' W 043°07'0 0.2 27.3
2015-Jul-28 07:53N 27°47' W 043°08'1 0.7 27.3
2015-Jul-28 07:09N 27°47' W 043°08'1 0.1 27.3
2015-Jul-28 00:43N 27°46' W 043°09'0 0.1 27.6
2015-Jul-27 23:50N 27°46' W 043°09'0 0.0 27.6
2015-Jul-27 23:46N 27°46' W 043°09'0 0.4 27.6
2015-Jul-27 23:03N 27°46' W 043°09'0 2.8 27.6
2015-Jul-27 22:55N 27°45' W 043°09'1 0.4 27.6
2015-Jul-27 21:06N 27°45' W 043°09'0 2.7 27.7
2015-Jul-27 20:57N 27°45' W 043°08'2 0.5 27.7
2015-Jul-27 17:03N 27°44' W 043°07'2 0.3 27.6
2015-Jul-27 08:03N 27°46' W 043°05'1 8.8 27.1
2015-Jul-27 07:58N 27°46' W 043°05'1 0.2 27.1
2015-Jul-27 03:57N 27°46' W 043°06'1 0.4 27.2
2015-Jul-27 01:48N 27°46' W 043°06'0 0.3 27.2
2015-Jul-27 00:10N 27°46' W 043°07'0 0.4 27.2
2015-Jul-26 23:24N 27°46' W 043°07'0 2.7 27.3
2015-Jul-26 23:17N 27°45' W 043°07'0 0.0 27.3
2015-Jul-26 22:29N 27°45' W 043°07'0 0.1 27.3
2015-Jul-26 21:19N 27°45' W 043°07'1 1.4 27.3
2015-Jul-26 20:56N 27°45' W 043°06'1 6.9 27.4
2015-Jul-26 20:51N 27°44' W 043°07'1 0.8 27.4
2015-Jul-26 19:39N 27°43' W 043°06'0 0.0 27.4
2015-Jul-26 17:58N 27°43' W 043°06'0 1.3 27.5
2015-Jul-26 17:52N 27°44' W 043°06'0 0.2 27.5
2015-Jul-26 17:11N 27°44' W 043°06'1 0.4 27.4
2015-Jul-26 15:31N 27°43' W 043°05'1 0.7 27.3
2015-Jul-26 14:31N 27°42' W 043°05'0 0.0 27.2
2015-Jul-26 13:43N 27°42' W 043°05'1 0.6 27.2
2015-Jul-26 12:10N 27°42' W 043°04'0 0.0 27.1
2015-Jul-26 12:05N 27°42' W 043°04'115.1 27.1
2015-Jul-26 12:01N 27°43' W 043°03'0 0.0 27.1
2015-Jul-26 10:19N 27°43' W 043°03'0 0.0 27.1
2015-Jul-26 10:05N 27°43' W 043°03'1 4.8 27.1
2015-Jul-26 09:56N 27°43' W 043°04'0 0.2 27.0
2015-Jul-26 08:16N 27°43' W 043°04'1 0.8 27.1
2015-Jul-26 07:30N 27°43' W 043°03'0 0.0 27.1
2015-Jul-26 07:03N 27°43' W 043°03'0 0.1 27.1
2015-Jul-26 05:48N 27°43' W 043°03'1 0.5 27.2
2015-Jul-26 04:05N 27°44' W 043°04'0 0.0 27.2
2015-Jul-25 22:51N 27°44' W 043°04'0 0.5 27.4
2015-Jul-25 22:42N 27°44' W 043°04'1 0.2
2015-Jul-25 19:51N 27°43' W 043°04'1 0.4 27.6
2015-Jul-25 18:06N 27°42' W 043°05'2 0.5 27.6
2015-Jul-25 14:08N 27°41' W 043°04'1 0.2 27.3
2015-Jul-25 10:08N 27°40' W 043°03'0 0.3 27.2
2015-Jul-25 09:11N 27°40' W 043°03'1 1.5 27.2
2015-Jul-25 08:26N 27°41' W 043°01'0 0.0 27.2
2015-Jul-25 07:34N 27°41' W 043°01'0 0.4 27.2
2015-Jul-25 06:50N 27°41' W 043°01'0 0.3 27.3
2015-Jul-25 06:05N 27°41' W 043°01'0 1.3 27.3
2015-Jul-25 06:00N 27°41' W 043°01'1 5.6 27.3
2015-Jul-25 05:54N 27°42' W 043°02'0 0.0 27.3
2015-Jul-25 04:23N 27°42' W 043°02'0 0.0 27.3
2015-Jul-25 04:20N 27°42' W 043°02'1 9.6 27.3
2015-Jul-25 04:16N 27°42' W 043°02'0 0.0 27.3
2015-Jul-25 00:51N 27°42' W 043°02'0 0.5 27.3
2015-Jul-25 00:07N 27°42' W 043°02'0 2.4 27.3
2015-Jul-24 23:56N 27°42' W 043°03'0 0.3
2015-Jul-24 23:06N 27°42' W 043°02'0 7.2 27.4
2015-Jul-24 23:02N 27°42' W 043°03'1 0.4 27.4
2015-Jul-24 20:02N 27°41' W 043°03'0 0.1 27.6
2015-Jul-24 18:17N 27°41' W 043°04'1 0.3 27.6
2015-Jul-24 15:54N 27°40' W 043°04'2 0.1 27.4
2015-Jul-23 20:55N 27°39' W 043°02'0 0.4 27.3
2015-Jul-23 20:14N 27°39' W 043°02'1 0.9 27.3
2015-Jul-23 19:15N 27°39' W 043°03'3 0.9 27.4
2015-Jul-23 16:06N 27°36' W 043°03'1 0.3 27.4
2015-Jul-23 13:56N 27°35' W 043°02'1 0.7 27.3
2015-Jul-23 13:04N 27°35' W 043°01'1 0.7 27.2
2015-Jul-23 12:09N 27°35' W 043°01'0 0.0
2015-Jul-23 12:07N 27°35' W 043°01'1 0.3 27.2
2015-Jul-23 08:38N 27°35' W 042°60'0 0.4 27.3
2015-Jul-23 07:56N 27°35' W 042°60'1 0.2 27.3
2015-Jul-23 00:48N 27°37' W 042°60'0 0.0 27.7
2015-Jul-22 23:54N 27°37' W 042°60'0 2.4 27.8
2015-Jul-22 23:51N 27°36' W 043°00'1 1.1 27.8
2015-Jul-22 23:06N 27°36' W 043°01'1 0.2 27.8
2015-Jul-22 17:57N 27°35' W 043°01'2 0.3 28.5
2015-Jul-22 11:50N 27°34' W 042°60'1 0.9 27.5
2015-Jul-22 10:53N 27°34' W 042°59'0 0.3 27.4
2015-Jul-22 10:05N 27°34' W 042°59'1 0.5 27.4
2015-Jul-22 08:57N 27°34' W 042°59'1 0.5 27.4
2015-Jul-22 07:15N 27°35' W 042°58'0 0.1 27.6
2015-Jul-22 04:53N 27°35' W 042°58'0 0.1 27.7
2015-Jul-22 01:49N 27°36' W 042°58'0 0.2 27.8
2015-Jul-22 01:08N 27°36' W 042°58'0 0.1 27.8
2015-Jul-21 21:57N 27°36' W 042°58'   28.1

Dump ship's entire track history